Flight Track Log - Related Links

Times and Time Zones

All times are in EDT time to prevent confusion due to time zone crossing. See the EJA922 flight status page for this flight to view local times or setup timezone preferences in your user account.

Time Position Orientation Groundspeed Altitude Reporting Facility
EDT Latitude Longitude Course Direction KTS MPH feet Rate Location/Type
Thu 11:01:18 AM 33.2744 -82.0164 284° West 232 267 5,400  Level Atlanta Center
Thu 11:02:18 AM 33.2256 -82.0819 228° Southwest 245 282 9,000 2,600 Climbing Atlanta Center
Thu 11:03:18 AM 33.2356 -82.1861 277° West 259 298 10,600 2,150 Climbing Atlanta Center
Thu 11:04:18 AM 33.2581 -82.3000 283° West 307 353 13,300 2,250 Climbing Atlanta Center
Thu 11:05:18 AM 33.2806 -82.4186 283° West 343 395 15,100 1,650 Climbing Atlanta Center
Thu 11:06:00 AM 33.4568 -82.8342 284° West  Level FlightAware Approximate
Thu 11:06:18 AM 33.3008 -82.5425 281° West 364 419 16,600  Level Atlanta Center
Thu 11:07:18 AM 33.3442 -82.6711 292° West 378 435 18,500 1,550 Climbing Atlanta Center
Thu 11:08:18 AM 33.3892 -82.7872 295° West 385 443 19,700 1,150 Climbing Atlanta Center
Thu 11:09:18 AM 33.4383 -82.9061 296° West 396 456 20,800 1,000 Climbing Atlanta Center
Thu 11:10:18 AM 33.4539 -83.0231 279° West 396 456 21,700 900 Climbing Atlanta Center
Thu 11:11:18 AM 33.4656 -83.1572 276° West 404 465 22,600 1,000 Climbing Atlanta Center
Thu 11:12:18 AM 33.4767 -83.2942 276° West 415 478 23,700 1,150 Climbing Atlanta Center
Thu 11:13:18 AM 33.4858 -83.4311 275° West 415 478 24,900 1,050 Climbing Atlanta Center
Thu 11:14:18 AM 33.4928 -83.5706 273° West 421 484 25,800 900 Climbing Atlanta Center
Thu 11:15:18 AM 33.5036 -83.7225 275° West 421 484 26,700 950 Climbing Atlanta Center
Thu 11:16:18 AM 33.5144 -83.8694 275° West 426 490 27,700 950 Climbing Atlanta Center
Thu 11:17:18 AM 33.5228 -84.0139 274° West 431 496 28,600 800 Climbing Atlanta Center
Thu 11:18:18 AM 33.5311 -84.1558 274° West 436 502 29,300 700 Climbing Atlanta Center
Thu 11:19:18 AM 33.5394 -84.3056 274° West 446 513 30,000 750 Climbing Atlanta Center
Thu 11:20:18 AM 33.5494 -84.4575 275° West 451 519 30,800 900 Climbing Atlanta Center
Thu 11:21:18 AM 33.5592 -84.6122 274° West 461 531 31,800 1,100 Climbing Atlanta Center
Thu 11:22:18 AM 33.5667 -84.7494 274° West 461 531 33,000 1,200 Climbing Atlanta Center
Thu 11:23:18 AM 33.5764 -84.8992 274° West 461 531 34,200 1,500 Climbing Atlanta Center
Thu 11:24:18 AM 33.5856 -85.0489 274° West 461 531 36,000 1,650 Climbing Atlanta Center
Thu 11:25:18 AM 33.5928 -85.1933 273° West 453 521 37,500 1,300 Climbing Atlanta Center
Thu 11:26:18 AM 33.6014 -85.3508 274° West 441 507 38,600 1,100 Climbing Atlanta Center
Thu 11:27:18 AM 33.6083 -85.4931 273° West 441 507 39,700 950 Climbing Atlanta Center
Thu 11:28:18 AM 33.6189 -85.6403 275° West 441 507 40,500 750 Climbing Atlanta Center
Thu 11:29:18 AM 33.6233 -85.7850 272° West 440 506 41,200 750 Climbing Atlanta Center
Thu 11:30:18 AM 33.6275 -85.9250 272° West 434 499 42,000 800 Climbing Atlanta Center
Thu 11:31:18 AM 33.6339 -86.0522 273° West 434 499 42,800 500 Climbing Atlanta Center
Thu 11:32:18 AM 33.6397 -86.1997 273° West 434 499 43,000 100 Climbing Atlanta Center
Thu 11:33:18 AM 33.6475 -86.3494 274° West 444 511 43,000  Level Atlanta Center
Thu 11:34:18 AM 33.6528 -86.4994 272° West 449 517 43,000  Level Atlanta Center
Thu 11:35:18 AM 33.6581 -86.6519 272° West 455 524 43,000  Level Atlanta Center
Thu 11:36:18 AM 33.6653 -86.8017 273° West 460 529 43,000  Level Atlanta Center
Thu 11:37:18 AM 33.6783 -86.9519 276° West 460 529 43,000  Level Atlanta Center
Thu 11:38:18 AM 33.7122 -87.1081 285° West 453 521 43,000  Level Atlanta Center
Thu 11:40:33 AM 33.7769 -87.4183 284° West 435 501 43,000  Level Memphis Center
Thu 11:41:33 AM 33.8072 -87.5572 285° West 435 501 43,000  Level Memphis Center
Thu 11:42:33 AM 33.8272 -87.7117 279° West 447 514 43,000  Level Memphis Center
Thu 11:43:33 AM 33.8675 -87.8431 290° West 447 514 43,000  Level Memphis Center
Thu 11:44:33 AM 33.9000 -88.0047 284° West 452 520 43,000  Level Memphis Center
Thu 11:45:33 AM 33.9317 -88.1467 285° West 444 511 43,000  Level Memphis Center
Thu 11:46:33 AM 33.9594 -88.3011 282° West 466 536 43,000  Level Memphis Center
Thu 11:47:33 AM 33.9889 -88.4458 284° West 461 531 43,000  Level Memphis Center
Thu 11:48:33 AM 34.0181 -88.5903 284° West 456 525 43,000  Level Memphis Center
Thu 11:49:33 AM 34.0472 -88.7353 284° West 451 519 43,000  Level Memphis Center
Thu 11:50:33 AM 34.0761 -88.8750 284° West 440 506 43,000  Level Memphis Center
Thu 11:51:33 AM 34.1028 -89.0225 282° West 445 512 43,000  Level Memphis Center
Thu 11:52:33 AM 34.1314 -89.1678 283° West 450 518 43,000  Level Memphis Center
Thu 11:53:33 AM 34.1556 -89.3003 282° West 450 518 43,000  Level Memphis Center
Thu 11:54:33 AM 34.1819 -89.4458 282° West 450 518 43,000  Level Memphis Center
Thu 11:55:33 AM 34.2119 -89.5911 284° West 450 518 43,000  Level Memphis Center
Thu 11:56:33 AM 34.2400 -89.7367 283° West 450 518 43,000  Level Memphis Center
Thu 11:57:33 AM 34.2700 -89.8997 283° West 450 518 43,000  Level Memphis Center
Thu 11:58:33 AM 34.2975 -90.0478 283° West 450 518 43,000  Level Memphis Center
Thu 12:00:33 PM 34.3522 -90.3419 283° West 450 518 43,000  Level Memphis Center
Thu 12:01:33 PM 34.3792 -90.4906 282° West 450 518 43,000  Level Memphis Center
Thu 12:02:33 PM 34.4083 -90.6367 284° West 450 518 43,000  Level Memphis Center
Thu 12:03:33 PM 34.4497 -90.7728 290° West 444 511 43,000  Level Memphis Center
Thu 12:04:33 PM 34.5117 -90.8789 305° West 435 501 43,000  Level Memphis Center
Thu 12:05:33 PM 34.5864 -90.9928 309° West 435 501 43,000  Level Memphis Center
Thu 12:06:33 PM 34.6608 -91.1119 307° West 435 501 43,000  Level Memphis Center
Thu 12:07:33 PM 34.7331 -91.2289 307° West 435 501 43,000  Level Memphis Center
Thu 12:08:33 PM 34.8053 -91.3436 307° West 435 501 43,000  Level Memphis Center
Thu 12:09:33 PM 34.8836 -91.4711 307° West 435 501 43,000  Level Memphis Center
Thu 12:10:33 PM 34.9472 -91.5731 307° West 435 501 43,000  Level Memphis Center
Thu 12:12:33 PM 35.0886 -91.8036 307° West 429 494 43,000  Level Memphis Center
Thu 12:13:33 PM 35.1603 -91.9192 307° West 429 494 43,000  Level Memphis Center
Thu 12:14:33 PM 35.2297 -92.0322 307° West 429 494 43,000  Level Memphis Center
Thu 12:15:33 PM 35.3011 -92.1481 307° West 429 494 43,000  Level Memphis Center
Thu 12:16:33 PM 35.3706 -92.2617 307° West 429 494 43,000  Level Memphis Center
Thu 12:17:33 PM 35.4417 -92.3781 307° West 429 494 43,000  Level Memphis Center
Thu 12:18:33 PM 35.5128 -92.4969 306° West 429 494 43,000  Level Memphis Center
Thu 12:19:33 PM 35.5917 -92.6242 307° West 429 494 43,000  Level Memphis Center
Thu 12:20:33 PM 35.6625 -92.7486 305° West 429 494 43,000  Level Memphis Center
Thu 12:21:33 PM 35.7333 -92.8608 308° West 435 501 43,000  Level Memphis Center
Thu 12:22:33 PM 35.8039 -92.9781 307° West 435 501 43,000  Level Memphis Center
Thu 12:23:33 PM 35.8719 -93.1006 304° West 435 501 43,000  Level Memphis Center
Thu 12:24:33 PM 35.9425 -93.2183 307° West 430 495 43,000  Level Memphis Center
Thu 12:25:33 PM 36.0125 -93.3361 306° West 430 495 43,000  Level Memphis Center
Thu 12:26:33 PM 36.0786 -93.4542 305° West 430 495 43,000  Level Memphis Center
Thu 12:27:33 PM 36.1486 -93.5725 306° West 430 495 43,000  Level Memphis Center
Thu 12:28:33 PM 36.2183 -93.6936 306° West 430 495 43,000  Level Memphis Center
Thu 12:29:33 PM 36.2758 -93.7989 304° West 430 495 43,000  Level Memphis Center
Thu 12:31:42 PM 36.4344 -94.0597 307° West 424 488 43,000 32 Level Kansas City Center
Thu 12:32:42 PM 36.5022 -94.1783 305° West 422 486 43,100 145 Climbing Kansas City Center
Thu 12:33:46 PM 36.5694 -94.2983 305° West 422 486 43,300 242 Climbing Kansas City Center
Thu 12:34:46 PM 36.6381 -94.4156 306° West 421 484 43,600 242 Climbing Kansas City Center
Thu 12:35:50 PM 36.7042 -94.5317 305° West 415 478 43,800 242 Climbing Kansas City Center
Thu 12:36:50 PM 36.7717 -94.6492 306° West 416 479 44,100 339 Climbing Kansas City Center
Thu 12:37:54 PM 36.8497 -94.7903 305° West 414 476 44,500 288 Climbing Kansas City Center
Thu 12:38:55 PM 36.9156 -94.9075 305° West 414 476 44,700 246 Climbing Kansas City Center
Thu 12:39:56 PM 36.9811 -95.0239 305° West 412 474 45,000 145 Climbing Kansas City Center
Thu 12:40:59 PM 37.0464 -95.1411 305° West 413 475 45,000  Level Kansas City Center
Thu 12:42:01 PM 37.1122 -95.2586 305° West 413 475 45,000  Level Kansas City Center
Thu 12:43:02 PM 37.1914 -95.4019 305° West 417 480 45,000  Level Kansas City Center
Thu 12:44:05 PM 37.2572 -95.5250 304° West 422 486 45,000  Level Kansas City Center
Thu 12:45:07 PM 37.3231 -95.6442 305° West 417 480 45,000  Level Kansas City Center
Thu 12:46:10 PM 37.3889 -95.7644 305° West 418 481 45,000  Level Kansas City Center
Thu 12:47:11 PM 37.4542 -95.8853 304° West 418 481 45,000  Level Kansas City Center
Thu 12:48:15 PM 37.5203 -96.0072 304° West 420 483 45,000  Level Kansas City Center
Thu 12:49:15 PM 37.5994 -96.1522 305° West 420 483 45,000  Level Kansas City Center
Thu 12:50:19 PM 37.6608 -96.2664 304° West 421 484 45,000  Level Kansas City Center
Thu 12:51:19 PM 37.7286 -96.3878 305° West 422 486 45,000  Level Kansas City Center
Thu 12:52:22 PM 37.7942 -96.5108 304° West 423 487 45,000  Level Kansas City Center
Thu 12:53:24 PM 37.8592 -96.6328 304° West 420 483 45,000  Level Kansas City Center
Thu 12:54:25 PM 37.9375 -96.7803 304° West 420 483 45,000  Level Kansas City Center
Thu 12:55:29 PM 38.0031 -96.9025 304° West 421 484 45,000  Level Kansas City Center
Thu 12:56:29 PM 38.0678 -97.0253 304° West 420 483 45,000  Level Kansas City Center
Thu 12:57:32 PM 38.1328 -97.1489 304° West 421 484 45,000  Level Kansas City Center
Thu 12:58:33 PM 38.1978 -97.2725 304° West 423 487 45,000  Level Kansas City Center
Thu 12:59:37 PM 38.2761 -97.4217 304° West 425 489 45,000  Level Kansas City Center
Thu 01:00:38 PM 38.3408 -97.5467 303° West 426 490 45,000  Level Kansas City Center
Thu 01:01:39 PM 38.4053 -97.6722 303° West 427 491 45,000  Level Kansas City Center
Thu 01:02:43 PM 38.4703 -97.7969 304° West 425 489 45,000  Level Kansas City Center
Thu 01:03:44 PM 38.5344 -97.9228 303° West 425 489 45,000  Level Kansas City Center
Thu 01:04:44 PM 38.5989 -98.0486 303° West 425 489 45,000  Level Kansas City Center
Thu 01:05:48 PM 38.6764 -98.1994 303° West 425 489 45,000  Level Kansas City Center
Thu 01:06:51 PM 38.7403 -98.3264 303° West 426 490 45,000  Level Kansas City Center
Thu 01:07:52 PM 38.8039 -98.4517 303° West 422 486 45,000  Level Kansas City Center
Thu 01:08:55 PM 38.8667 -98.5781 303° West 421 484 45,000  Level Kansas City Center
Thu 01:09:56 PM 38.9311 -98.7050 303° West 424 488 45,000  Level Kansas City Center
Thu 01:10:59 PM 38.9944 -98.8331 302° West 425 489 45,000  Level Kansas City Center
Thu 01:12:00 PM 39.0706 -98.9869 303° West 427 491 45,000  Level Kansas City Center
Thu 01:13:04 PM 39.1347 -99.1150 303° West 426 490 45,000  Level Kansas City Center
Thu 01:14:04 PM 39.1978 -99.2453 302° West 428 493 45,000  Level Kansas City Center
Thu 01:15:08 PM 39.2592 -99.3764 301° West 429 494 45,000  Level Kansas City Center
Thu 01:16:09 PM 39.3236 -99.5039 303° West 425 489 45,000  Level Kansas City Center
Thu 01:17:11 PM 39.3919 -99.6456 302° West 427 491 45,000  Level Kansas City Center
Thu 01:18:14 PM 39.4569 -99.7800 302° West 428 493 45,000  Level Kansas City Center
Thu 01:19:52 PM 39.5492 -99.9706 302° West 426 490 45,000  Level Denver Center
Thu 01:20:54 PM 39.6297 -100.1372 302° West 427 491 45,000  Level Denver Center
Thu 01:21:56 PM 39.6992 -100.2833 302° West 425 489 45,000  Level Denver Center
Thu 01:22:58 PM 39.7581 -100.4075 302° West 423 487 45,000  Level Denver Center
Thu 01:24:01 PM 39.8172 -100.5331 302° West 424 488 45,000  Level Denver Center
Thu 01:25:03 PM 39.8869 -100.6808 302° West 427 491 45,000  Level Denver Center
Thu 01:26:17 PM 39.9650 -100.8475 301° West 422 486 45,000  Level Denver Center
Thu 01:27:19 PM 40.0236 -100.9736 301° West 421 484 45,000  Level Denver Center
Thu 01:28:21 PM 40.0911 -101.1203 301° West 420 483 45,000  Level Denver Center
Thu 01:29:23 PM 40.1497 -101.2461 301° West 422 486 45,000  Level Denver Center
Thu 01:30:25 PM 40.2086 -101.3744 301° West 426 490 45,000  Level Denver Center
Thu 01:31:28 PM 40.2775 -101.5244 301° West 429 494 45,000  Level Denver Center
Thu 01:32:30 PM 40.3358 -101.6522 301° West 427 491 45,000  Level Denver Center
Thu 01:33:32 PM 40.4031 -101.8014 301° West 426 490 45,000  Level Denver Center
Thu 01:34:46 PM 40.4611 -101.9289 301° West 424 488 45,000  Level Denver Center
Thu 01:35:48 PM 40.5381 -102.1019 300° West 427 491 45,000  Level Denver Center
Thu 01:36:51 PM 40.5964 -102.2306 301° West 426 490 45,000  Level Denver Center
Thu 01:37:52 PM 40.6639 -102.3800 301° West 426 490 45,000  Level Denver Center
Thu 01:38:55 PM 40.7200 -102.5100 300° West 426 490 45,000  Level Denver Center
Thu 01:39:57 PM 40.7867 -102.6594 301° West 423 487 45,000  Level Denver Center
Thu 01:40:59 PM 40.8425 -102.7878 300° West 421 484 45,000  Level Denver Center
Thu 01:42:01 PM 40.9094 -102.9381 301° West 422 486 45,000  Level Denver Center
Thu 01:43:03 PM 40.9681 -103.0731 300° West 428 493 45,000  Level Denver Center
Thu 01:44:05 PM 41.0275 -103.2094 300° West 426 490 45,000  Level Denver Center
Thu 01:45:07 PM 41.0931 -103.3617 300° West 426 490 45,000  Level Denver Center
Thu 01:46:09 PM 41.1489 -103.4919 300° West 424 488 45,000  Level Denver Center
Thu 01:47:11 PM 41.2136 -103.6431 300° West 422 486 45,000  Level Denver Center
Thu 01:48:13 PM 41.2694 -103.7756 299° West 428 493 45,000  Level Denver Center
Thu 01:49:15 PM 41.3342 -103.9292 299° West 427 491 45,000  Level Denver Center
Thu 01:50:17 PM 41.3900 -104.0614 299° West 426 490 45,000  Level Denver Center
Thu 01:51:20 PM 41.4458 -104.1933 299° West 425 489 45,000 96 Level Denver Center
Thu 01:52:22 PM 41.5094 -104.3475 299° West 424 488 45,200 194 Climbing Denver Center
Thu 01:53:24 PM 41.5653 -104.4786 300° West 423 487 45,400 242 Climbing Denver Center
Thu 01:54:26 PM 41.6281 -104.6328 299° West 422 486 45,700 290 Climbing Denver Center
Thu 01:55:28 PM 41.6825 -104.7633 299° West 419 482 46,000 290 Climbing Denver Center
Thu 01:56:30 PM 41.7453 -104.9175 299° West 420 483 46,300 290 Climbing Denver Center
Thu 01:57:32 PM 41.7997 -105.0514 299° West 425 489 46,600 290 Climbing Denver Center
Thu 01:58:34 PM 41.8619 -105.2069 298° West 424 488 46,900 175 Climbing Denver Center
Thu 01:59:49 PM 41.9253 -105.3633 299° West 425 489 47,000 44 Climbing Denver Center
Thu 02:00:51 PM 41.9903 -105.5225 299° West 431 496 47,000  Level Denver Center
Thu 02:01:53 PM 42.0447 -105.6578 298° West 432 497 47,000  Level Denver Center
Thu 02:02:55 PM 42.1067 -105.8175 298° West 429 494 47,000  Level Denver Center
Thu 02:03:57 PM 42.1617 -105.9553 298° West 433 498 47,000  Level Denver Center
Thu 02:04:59 PM 42.2264 -106.1178 298° West 441 507 47,000  Level Denver Center
Thu 02:06:01 PM 42.2808 -106.2575 298° West 441 507 47,000  Level Denver Center
Thu 02:08:20 PM 42.4181 -106.6125 298° West 446 513 47,000  Level Salt Lake Center
Thu 02:09:07 PM 42.4644 -106.7286 298° West 443 510 47,000  Level Denver Center
Thu 02:11:11 PM 42.5806 -107.0333 297° West 447 514 47,000  Level Denver Center
Thu 02:12:14 PM 42.6375 -107.1817 298° West 446 513 47,000  Level Denver Center
Thu 02:13:16 PM 42.6981 -107.3436 297° West 448 516 47,000  Level Denver Center
Thu 02:14:17 PM 42.7422 -107.4622 297° West 444 511 47,000  Level Denver Center
Thu 02:15:20 PM 42.8139 -107.6542 297° West 447 514 47,000  Level Denver Center
Thu 02:16:22 PM 42.8683 -107.7989 297° West 449 517 47,000  Level Denver Center
Thu 02:17:38 PM 42.9383 -107.9914 296° West 445 512 47,000  Level Salt Lake Center
Thu 02:18:40 PM 42.9972 -108.1572 296° West 444 511 47,000  Level Salt Lake Center
Thu 02:19:42 PM 43.0525 -108.3056 297° West 440 506 47,000  Level Salt Lake Center
Thu 02:20:44 PM 43.1067 -108.4572 296° West 443 510 47,000  Level Salt Lake Center
Thu 02:22:00 PM 43.1742 -108.6402 297° West  Level FlightAware Approximate
Thu 02:22:48 PM 43.2144 -108.7581 297° West 440 506 47,000  Level Salt Lake Center
Thu 02:23:50 PM 43.2689 -108.9081 297° West 440 506 47,000  Level Salt Lake Center
Thu 02:24:53 PM 43.3333 -109.0903 296° West 442 509 47,000  Level Salt Lake Center
Thu 02:25:55 PM 43.3867 -109.2431 296° West 444 511 47,000  Level Salt Lake Center
Thu 02:26:57 PM 43.4403 -109.3961 296° West 445 512 47,000  Level Salt Lake Center
Thu 02:27:59 PM 43.4942 -109.5483 296° West 442 509 47,000  Level Salt Lake Center
Thu 02:29:01 PM 43.5494 -109.7081 296° West 445 512 47,000  Level Salt Lake Center
Thu 02:30:03 PM 43.6103 -109.8789 296° West 444 511 47,000  Level Salt Lake Center
Thu 02:31:05 PM 43.6603 -110.0297 295° West 450 518 47,000  Level Salt Lake Center
Thu 02:32:07 PM 43.7208 -110.2067 295° West 455 524 47,000  Level Salt Lake Center
Thu 02:33:09 PM 43.7719 -110.3558 295° West 451 519 47,000  Level Salt Lake Center
Thu 02:34:11 PM 43.8311 -110.5319 295° West 451 519 47,000  Level Salt Lake Center
Thu 02:35:13 PM 43.8825 -110.6847 295° West 454 522 47,000  Level Salt Lake Center
Thu 02:36:15 PM 43.9314 -110.8383 294° West 455 524 47,000  Level Salt Lake Center
Thu 02:37:17 PM 43.9900 -111.0150 295° West 450 518 47,000  Level Salt Lake Center
Thu 02:38:19 PM 44.0397 -111.1692 294° West 454 522 47,000  Level Salt Lake Center
Thu 02:39:21 PM 44.0994 -111.3492 295° West 457 526 47,000  Level Salt Lake Center
Thu 02:40:23 PM 44.1494 -111.5053 294° West 458 527 47,000  Level Salt Lake Center
Thu 02:41:25 PM 44.2075 -111.6875 294° West 457 526 47,000  Level Salt Lake Center
Thu 02:42:27 PM 44.2581 -111.8444 294° West 458 527 47,000  Level Salt Lake Center
Thu 02:43:29 PM 44.3083 -112.0025 294° West 461 531 47,000  Level Salt Lake Center
Thu 02:44:31 PM 44.3661 -112.1872 294° West 463 533 47,000  Level Salt Lake Center
Thu 02:45:33 PM 44.4169 -112.3469 294° West 467 537 47,000  Level Salt Lake Center
Thu 02:46:35 PM 44.4758 -112.5339 294° West 469 540 47,000  Level Salt Lake Center
Thu 02:47:37 PM 44.5253 -112.6953 293° West 470 541 47,000  Level Salt Lake Center
Thu 02:48:39 PM 44.5822 -112.8814 293° West 466 536 47,000  Level Salt Lake Center
Thu 02:49:41 PM 44.6314 -113.0408 293° West 466 536 47,000  Level Salt Lake Center
Thu 02:50:43 PM 44.6875 -113.2292 293° West 468 539 47,000  Level Salt Lake Center
Thu 02:51:45 PM 44.7369 -113.3911 293° West 470 541 47,000  Level Salt Lake Center
Thu 02:52:48 PM 44.7922 -113.5808 292° West 471 542 47,000  Level Salt Lake Center
Thu 02:53:50 PM 44.8433 -113.7436 294° West 473 544 47,000  Level Salt Lake Center
Thu 02:54:52 PM 44.8536 -113.9131 275° West 465 535 47,000  Level Salt Lake Center
Thu 02:55:54 PM 44.8175 -114.1197 256° West 462 532 47,000  Level Salt Lake Center
Thu 02:56:56 PM 44.7881 -114.2867 256° West 462 532 47,000  Level Salt Lake Center
Thu 02:57:58 PM 44.7600 -114.4539 257° West 459 528 47,000  Level Salt Lake Center
Thu 02:59:00 PM 44.7247 -114.6492 256° West 461 531 47,000  Level Salt Lake Center
Thu 03:00:02 PM 44.7100 -114.8183 263° West 460 529 47,000  Level Salt Lake Center
Thu 03:01:04 PM 44.7750 -115.0014 297° West 469 540 47,000  Level Salt Lake Center
Thu 03:02:06 PM 44.8331 -115.1589 298° West 473 544 47,000  Level Salt Lake Center
Thu 03:03:08 PM 44.8997 -115.3419 297° West 473 544 47,000  Level Salt Lake Center
Thu 03:04:10 PM 44.9558 -115.4997 297° West 472 543 47,000  Level Salt Lake Center
Thu 03:05:12 PM 45.0206 -115.6817 297° West 468 539 47,000  Level Salt Lake Center
Thu 03:06:14 PM 45.0753 -115.8375 296° West 466 536 47,000  Level Salt Lake Center
Thu 03:08:21 PM 45.2047 -116.2053 297° West 465 535 47,000  Level Seattle Center
Thu 03:09:23 PM 45.2589 -116.3628 296° West 466 536 47,000  Level Seattle Center
Thu 03:10:24 PM 45.3225 -116.5464 296° West 466 536 47,000  Level Seattle Center
Thu 03:11:26 PM 45.3769 -116.7061 296° West 469 540 47,000  Level Seattle Center
Thu 03:12:27 PM 45.4300 -116.8639 296° West 466 536 47,000  Level Seattle Center
Thu 03:13:28 PM 45.4961 -117.0464 297° West 465 535 47,000  Level Seattle Center
Thu 03:14:30 PM 45.5531 -117.2036 297° West 467 537 47,000  Level Seattle Center
Thu 03:15:31 PM 45.6206 -117.3892 298° West 471 542 47,000  Level Seattle Center
Thu 03:16:32 PM 45.6689 -117.5297 296° West 472 543 47,000  Level Seattle Center
Thu 03:17:34 PM 45.7306 -117.6961 298° West 472 543 47,000  Level Seattle Center
Thu 03:18:35 PM 45.8011 -117.9006 296° West 476 548 47,000  Level Seattle Center
Thu 03:19:37 PM 45.8600 -118.0706 296° West 476 548 47,000 -49 Level Seattle Center
Thu 03:20:38 PM 45.9197 -118.2400 297° West 475 547 46,900  Descending Seattle Center
Thu 03:21:40 PM 45.9775 -118.4097 296° West 475 547 47,000 49 Climbing Seattle Center
Thu 03:22:41 PM 46.0336 -118.5742 296° West 473 544 47,000  Level Seattle Center
Thu 03:23:43 PM 46.0917 -118.7444 296° West 476 548 47,000  Level Seattle Center
Thu 03:24:44 PM 46.1497 -118.9133 296° West 473 544 47,000  Level Seattle Center
Thu 03:25:45 PM 46.2175 -119.1178 296° West 474 545 47,000  Level Seattle Center
Thu 03:26:47 PM 46.2736 -119.2872 296° West 472 543 47,000  Level Seattle Center
Thu 03:27:48 PM 46.3311 -119.4594 296° West 474 545 47,000  Level Seattle Center
Thu 03:28:50 PM 46.3867 -119.6308 295° West 475 547 47,000 -927 Level Seattle Center
Thu 03:29:51 PM 46.4442 -119.8053 296° West 480 552 45,100 -2,293 Descending Seattle Center
Thu 03:30:53 PM 46.5061 -119.9972 295° West 522 601 42,300 -2,585 Descending Seattle Center
Thu 03:31:54 PM 46.5664 -120.1844 295° West 517 595 39,800 -2,754 Descending Seattle Center
Thu 03:32:55 PM 46.6308 -120.3833 295° West 510 587 36,700 -2,927 Descending Seattle Center
Thu 03:33:57 PM 46.6953 -120.5897 295° West 503 579 33,800 -2,732 Descending Seattle Center
Thu 03:34:58 PM 46.7539 -120.7756 295° West 507 583 31,100 -2,634 Descending Seattle Center
Thu 03:36:00 PM 46.8144 -120.9631 295° West 512 589 28,400 -2,585 Descending Seattle Center
Thu 03:37:01 PM 46.8911 -121.1336 303° West 506 582 25,800 -2,557 Descending Seattle Center
Thu 03:38:02 PM 46.9681 -121.2911 306° West 483 556 23,200 -2,488 Descending Seattle Center
Thu 03:39:04 PM 47.0419 -121.4492 304° West 438 504 20,700 -2,283 Descending Seattle Center
Thu 03:39:55 PM 47.0947 -121.5611 305° West 349 402 18,900 -1,932 Descending Seattle Center
Thu 03:41:02 PM 47.1528 -121.6886 304° West 335 386 16,900 -1,805 Descending Seattle Center
Thu 03:42:08 PM 47.2128 -121.8203 304° West 341 392 14,900 -1,525 Descending Seattle Center
Thu 03:43:04 PM 47.2603 -121.9228 304° West 335 386 13,800 -1,333 Descending Seattle Center
Thu 03:44:05 PM 47.3108 -122.0322 304° West 317 365 12,300 -1,500 Descending Seattle Center
Thu 03:45:12 PM 47.3594 -122.1417 303° West 300 345 10,600 -1,500 Descending Seattle Center
Thu 03:46:13 PM 47.4383 -122.1742 344° North 287 330 9,100 -1,561 Descending Seattle Center
Thu 03:47:15 PM 47.5139 -122.1756 359° North 276 318 7,400 -1,659 Descending Seattle Center
Thu 03:48:16 PM 47.5928 -122.1775 359° North 265 305 5,700 -1,795 Descending Seattle Center
Thu 03:49:22 PM 47.6711 -122.1797 359° North 262 302 3,600 -1,276 Descending Seattle Center
Thu 03:50:23 PM 47.7431 -122.2089 345° North 261 300 3,000 -407 Descending Seattle Center
Thu 03:51:20 PM 47.7650 -122.2786 295° West 234 269 2,800 -407 Descending Seattle Center
Thu 03:52:21 PM 47.7667 -122.3694 272° West 204 235 2,200 -293 Descending Seattle Center
Thu 03:53:23 PM 47.7483 -122.4453 250° West 200 230 2,200  Level Seattle Center
Thu 03:54:20 PM 47.7014 -122.4494 183° South 203 234 2,200  Level Seattle Center
Thu 03:55:25 PM 47.6486 -122.4039 150° Southeast 198 228 2,200 -286 Level Seattle Center
Thu 03:56:26 PM 47.6094 -122.3703 150° Southeast 162 186 1,600 -661 Descending Seattle Center
Thu 03:57:23 PM 47.5797 -122.3456 151° Southeast 126 145 900 -683 Descending Seattle Center
Thu 03:58:29 PM 47.5456 -122.3161 150° Southeast 131 151 200 -378 Descending Seattle Center
Thu 03:59:30 PM 47.5167 -122.2914 150° Southeast 130 150 100 -98 Descending Seattle Center

Login

Don't have an account? Register now (free) for customized features, flight alerts, and more!